createdAt,value
2023-04-26T00:02:09.788Z,100.00
2023-04-26T00:04:40.225Z,100.00
2023-04-26T00:07:10.366Z,100.00
2023-04-26T00:09:41.927Z,100.00
2023-04-26T00:12:12.397Z,100.00
2023-04-26T00:14:42.196Z,100.00
2023-04-26T00:17:12.189Z,100.00
2023-04-26T00:19:42.227Z,100.00
2023-04-26T00:22:17.892Z,100.00
2023-04-26T00:24:46.376Z,100.00
2023-04-26T00:27:22.550Z,100.00
2023-04-26T00:29:53.327Z,100.00
2023-04-26T00:32:24.317Z,100.00
2023-04-26T00:35:00.600Z,100.00
2023-04-26T00:37:33.145Z,100.00
2023-04-26T00:40:01.656Z,100.00
2023-04-26T00:42:30.379Z,100.00
2023-04-26T00:44:58.903Z,100.00
2023-04-26T00:47:31.688Z,100.00
2023-04-26T00:50:04.241Z,100.00
2023-04-26T00:52:33.761Z,100.00
2023-04-26T00:55:02.223Z,100.00
2023-04-26T00:57:32.001Z,100.00
2023-04-26T01:00:00.431Z,100.00
2023-04-26T01:02:30.262Z,100.00
2023-04-26T01:05:09.521Z,100.00
2023-04-26T01:07:40.389Z,100.00
2023-04-26T01:10:11.773Z,100.00
2023-04-26T01:12:40.851Z,100.00
2023-04-26T01:15:11.619Z,100.00
2023-04-26T01:17:44.936Z,100.00
2023-04-26T01:20:15.614Z,100.00
2023-04-26T01:22:47.105Z,100.00
2023-04-26T01:25:17.635Z,100.00
2023-04-26T01:27:47.116Z,100.00
2023-04-26T01:30:15.753Z,100.00
2023-04-26T01:32:45.282Z,100.00
2023-04-26T01:35:13.824Z,100.00
2023-04-26T01:37:42.726Z,100.00
2023-04-26T01:40:13.772Z,100.00
2023-04-26T01:42:42.384Z,100.00
2023-04-26T01:45:11.915Z,100.00
2023-04-26T01:47:40.578Z,100.00
2023-04-26T01:50:11.190Z,100.00
2023-04-26T01:52:41.142Z,100.00
2023-04-26T01:55:17.918Z,100.00
2023-04-26T01:57:48.705Z,100.00
2023-04-26T02:00:42.154Z,100.00
2023-04-26T02:03:13.087Z,100.00
2023-04-26T02:05:43.280Z,100.00
2023-04-26T02:08:12.175Z,100.00
2023-04-26T02:10:46.830Z,100.00
2023-04-26T02:13:17.538Z,100.00
2023-04-26T02:15:49.333Z,100.00
2023-04-26T02:18:22.167Z,100.00
2023-04-26T02:20:57.993Z,100.00
2023-04-26T02:23:26.803Z,100.00
2023-04-26T02:25:57.001Z,100.00
2023-04-26T02:28:25.866Z,100.00
2023-04-26T02:30:57.067Z,100.00
2023-04-26T02:33:26.366Z,100.00
2023-04-26T02:35:56.055Z,100.00
2023-04-26T02:38:27.607Z,100.00
2023-04-26T02:41:01.568Z,100.00
2023-04-26T02:43:35.816Z,100.00
2023-04-26T02:46:22.786Z,100.00
2023-04-26T02:48:53.251Z,100.00
2023-04-26T02:51:30.678Z,100.00
2023-04-26T02:54:01.504Z,100.00
2023-04-26T02:56:32.015Z,100.00
2023-04-26T02:59:07.320Z,100.00
2023-04-26T03:01:35.928Z,100.00
2023-04-26T03:04:05.698Z,100.00
2023-04-26T03:06:35.584Z,100.00
2023-04-26T03:09:05.972Z,100.00
2023-04-26T03:11:36.104Z,100.00
2023-04-26T03:14:04.611Z,100.00
2023-04-26T03:16:33.268Z,100.00
2023-04-26T03:19:02.410Z,100.00
2023-04-26T03:21:32.309Z,100.00
2023-04-26T03:24:01.118Z,100.00
2023-04-26T03:26:30.765Z,100.00
2023-04-26T03:29:00.999Z,100.00
2023-04-26T03:31:31.813Z,100.00
2023-04-26T03:34:00.444Z,100.00
2023-04-26T03:36:29.993Z,100.00
2023-04-26T03:39:03.354Z,100.00
2023-04-26T03:41:33.597Z,100.00
2023-04-26T03:44:06.362Z,100.00
2023-04-26T03:46:34.712Z,100.00
2023-04-26T03:49:03.321Z,100.00
2023-04-26T03:51:31.954Z,100.00
2023-04-26T03:54:01.649Z,100.00
2023-04-26T03:56:30.368Z,100.00
2023-04-26T03:58:59.848Z,100.00
2023-04-26T04:01:30.154Z,100.00
2023-04-26T04:04:05.037Z,100.00
2023-04-26T04:06:33.851Z,100.00
2023-04-26T04:09:05.782Z,100.00
2023-04-26T04:11:35.139Z,100.00
2023-04-26T04:14:04.497Z,100.00
2023-04-26T04:16:37.088Z,100.00
2023-04-26T04:19:05.704Z,100.00
2023-04-26T04:21:35.461Z,100.00
2023-04-26T04:24:05.884Z,100.00
2023-04-26T04:26:34.598Z,100.00
2023-04-26T04:29:09.296Z,100.00
2023-04-26T04:31:41.928Z,100.00
2023-04-26T04:34:12.077Z,100.00
2023-04-26T04:36:41.039Z,100.00
2023-04-26T04:39:13.903Z,100.00
2023-04-26T04:41:47.907Z,100.00
2023-04-26T04:44:19.824Z,100.00
2023-04-26T04:46:53.069Z,100.00
2023-04-26T04:49:21.659Z,100.00
2023-04-26T04:51:51.414Z,100.00
2023-04-26T04:54:25.830Z,100.00
2023-04-26T04:56:55.378Z,100.00
2023-04-26T04:59:26.349Z,100.00
2023-04-26T05:01:57.590Z,100.00
2023-04-26T05:04:26.445Z,100.00
2023-04-26T05:06:56.920Z,100.00
2023-04-26T05:09:25.580Z,100.00
2023-04-26T05:12:00.376Z,100.00
2023-04-26T05:14:31.613Z,100.00
2023-04-26T05:17:02.770Z,100.00
2023-04-26T05:19:31.308Z,100.00
2023-04-26T05:21:59.754Z,100.00
2023-04-26T05:24:31.694Z,100.00
2023-04-26T05:27:00.188Z,100.00
2023-04-26T05:29:43.098Z,100.00
2023-04-26T05:32:15.314Z,100.00
2023-04-26T05:34:44.824Z,100.00
2023-04-26T05:37:13.399Z,100.00
2023-04-26T05:39:41.931Z,100.00
2023-04-26T05:42:10.693Z,100.00
2023-04-26T05:44:39.420Z,100.00
2023-04-26T05:47:08.050Z,100.00
2023-04-26T05:49:38.521Z,100.00
2023-04-26T05:52:09.349Z,100.00
2023-04-26T05:54:38.071Z,100.00
2023-04-26T05:57:06.646Z,100.00
2023-04-26T05:59:38.099Z,100.00
2023-04-26T06:02:08.165Z,100.00
2023-04-26T06:04:38.283Z,100.00
2023-04-26T06:07:08.484Z,100.00
2023-04-26T06:09:43.224Z,100.00
2023-04-26T06:12:11.917Z,100.00
2023-04-26T06:14:40.209Z,100.00
2023-04-26T06:17:08.933Z,100.00
2023-04-26T06:19:39.281Z,100.00
2023-04-26T06:22:08.875Z,100.00
2023-04-26T06:24:37.472Z,100.00
2023-04-26T06:27:05.763Z,100.00
2023-04-26T06:29:34.988Z,100.00
2023-04-26T06:32:03.896Z,100.00
2023-04-26T06:34:32.220Z,100.00
2023-04-26T06:37:02.603Z,100.00
2023-04-26T06:39:31.162Z,100.00
2023-04-26T06:42:00.295Z,100.00
2023-04-26T06:44:30.982Z,100.00
2023-04-26T06:46:59.758Z,100.00
2023-04-26T06:49:28.146Z,100.00
2023-04-26T06:51:56.785Z,100.00
2023-04-26T06:54:30.119Z,100.00
2023-04-26T06:56:59.442Z,100.00
2023-04-26T06:59:30.025Z,100.00
2023-04-26T07:01:58.935Z,100.00
2023-04-26T07:04:27.844Z,100.00
2023-04-26T07:06:58.049Z,100.00
2023-04-26T07:09:29.005Z,100.00
2023-04-26T07:11:57.458Z,100.00
2023-04-26T07:14:26.836Z,100.00
2023-04-26T07:16:55.598Z,100.00
2023-04-26T07:19:24.387Z,100.00
2023-04-26T07:21:53.154Z,100.00
2023-04-26T07:24:21.911Z,100.00
2023-04-26T07:26:52.991Z,100.00
2023-04-26T07:29:22.575Z,100.00
2023-04-26T07:31:54.778Z,100.00
2023-04-26T07:34:23.660Z,100.00
2023-04-26T07:36:52.517Z,100.00
2023-04-26T07:39:21.177Z,100.00
2023-04-26T07:41:49.881Z,100.00
2023-04-26T07:44:20.070Z,100.00
2023-04-26T07:46:48.520Z,100.00
2023-04-26T07:49:16.949Z,100.00
2023-04-26T07:51:45.891Z,100.00
2023-04-26T07:54:14.273Z,100.00
2023-04-26T07:56:43.442Z,100.00
2023-04-26T07:59:12.268Z,100.00
2023-04-26T08:01:42.508Z,100.00
2023-04-26T08:04:11.728Z,100.00
2023-04-26T08:06:45.122Z,100.00
2023-04-26T08:09:13.634Z,100.00
2023-04-26T08:11:42.267Z,100.00
2023-04-26T08:14:10.984Z,100.00
2023-04-26T08:16:39.551Z,100.00
2023-04-26T08:19:09.723Z,100.00
2023-04-26T08:21:39.177Z,100.00
2023-04-26T08:24:09.029Z,100.00
2023-04-26T08:26:37.514Z,100.00
2023-04-26T08:29:05.813Z,100.00
2023-04-26T08:31:34.656Z,100.00
2023-04-26T08:34:03.229Z,100.00
2023-04-26T08:36:35.267Z,100.00
2023-04-26T08:39:05.638Z,100.00
2023-04-26T08:41:38.779Z,100.00
2023-04-26T08:44:08.928Z,100.00
2023-04-26T08:46:46.236Z,100.00
2023-04-26T08:49:24.458Z,100.00
2023-04-26T08:51:57.004Z,100.00
2023-04-26T08:54:27.955Z,100.00
2023-04-26T08:57:00.743Z,100.00
2023-04-26T08:59:31.564Z,100.00
2023-04-26T09:02:03.204Z,100.00
2023-04-26T09:04:32.038Z,100.00
2023-04-26T09:07:03.545Z,100.00
2023-04-26T09:09:38.377Z,100.00
2023-04-26T09:12:07.108Z,100.00
2023-04-26T09:14:35.717Z,100.00
2023-04-26T09:17:04.121Z,100.00
2023-04-26T09:19:37.970Z,100.00
2023-04-26T09:22:09.143Z,100.00
2023-04-26T09:24:50.729Z,100.00
2023-04-26T09:27:19.413Z,100.00
2023-04-26T09:30:03.420Z,100.00
2023-04-26T09:32:46.050Z,100.00
2023-04-26T09:35:27.322Z,100.00
2023-04-26T09:38:08.610Z,100.00
2023-04-26T09:40:41.188Z,100.00
2023-04-26T09:43:11.805Z,100.00
2023-04-26T09:45:50.704Z,100.00
2023-04-26T09:48:23.076Z,100.00
2023-04-26T09:50:53.804Z,100.00
2023-04-26T09:53:34.650Z,100.00
2023-04-26T09:56:11.780Z,100.00
2023-04-26T09:58:42.351Z,100.00
2023-04-26T10:01:12.647Z,100.00
2023-04-26T10:03:43.201Z,100.00
2023-04-26T10:06:14.160Z,100.00
2023-04-26T10:08:44.777Z,100.00
2023-04-26T10:11:14.367Z,100.00
2023-04-26T10:13:45.168Z,100.00
2023-04-26T10:16:13.628Z,100.00
2023-04-26T10:18:42.336Z,100.00
2023-04-26T10:21:14.767Z,100.00
2023-04-26T10:23:45.612Z,100.00
2023-04-26T10:26:47.343Z,100.00
2023-04-26T10:29:15.808Z,100.00
2023-04-26T10:32:17.168Z,100.00
2023-04-26T10:34:46.186Z,100.00
2023-04-26T10:37:16.336Z,100.00
2023-04-26T10:39:47.619Z,100.00
2023-04-26T10:42:24.212Z,100.00
2023-04-26T10:44:54.782Z,100.00
2023-04-26T10:47:26.917Z,100.00
2023-04-26T10:50:05.694Z,100.00
2023-04-26T10:52:35.409Z,100.00
2023-04-26T10:55:06.596Z,100.00
2023-04-26T10:57:54.535Z,100.00
2023-04-26T11:00:31.998Z,100.00
2023-04-26T11:03:13.116Z,100.00
2023-04-26T11:05:56.913Z,100.00
2023-04-26T11:08:27.646Z,100.00
2023-04-26T11:11:13.798Z,100.00
2023-04-26T11:13:44.845Z,100.00
2023-04-26T11:16:14.681Z,100.00
2023-04-26T11:18:45.487Z,100.00
2023-04-26T11:21:18.366Z,100.00
2023-04-26T11:23:55.970Z,100.00
2023-04-26T11:26:34.531Z,100.00
2023-04-26T11:29:03.820Z,100.00
2023-04-26T11:31:32.390Z,100.00
2023-04-26T11:34:05.655Z,100.00
2023-04-26T11:36:34.485Z,100.00
2023-04-26T11:39:04.580Z,100.00
2023-04-26T11:41:34.619Z,100.00
2023-04-26T11:44:03.167Z,100.00
2023-04-26T11:46:32.394Z,100.00
2023-04-26T11:49:01.772Z,100.00
2023-04-26T11:51:32.211Z,100.00
2023-04-26T11:54:03.803Z,100.00
2023-04-26T11:56:33.906Z,100.00
2023-04-26T11:59:03.195Z,100.00
2023-04-26T12:01:32.044Z,100.00
2023-04-26T12:04:01.615Z,100.00
2023-04-26T12:06:43.019Z,100.00
2023-04-26T12:09:11.841Z,100.00
2023-04-26T12:11:42.100Z,100.00
2023-04-26T12:14:11.929Z,100.00
2023-04-26T12:16:40.560Z,100.00
2023-04-26T12:19:11.655Z,100.00
2023-04-26T12:21:43.976Z,100.00
2023-04-26T12:24:26.107Z,100.00
2023-04-26T12:26:56.408Z,100.00
2023-04-26T12:29:25.406Z,100.00
2023-04-26T12:31:54.170Z,100.00
2023-04-26T12:34:22.828Z,100.00
2023-04-26T12:36:52.213Z,100.00
2023-04-26T12:39:21.087Z,100.00
2023-04-26T12:41:50.216Z,100.00
2023-04-26T12:44:22.067Z,100.00
2023-04-26T12:46:51.405Z,100.00
2023-04-26T12:49:20.609Z,100.00
2023-04-26T12:51:50.027Z,100.00
2023-04-26T12:54:18.466Z,100.00
2023-04-26T12:56:48.456Z,100.00
2023-04-26T12:59:18.032Z,100.00
2023-04-26T13:01:48.250Z,100.00
2023-04-26T13:04:17.565Z,100.00
2023-04-26T13:06:46.345Z,100.00
2023-04-26T13:09:15.413Z,100.00
2023-04-26T13:11:43.825Z,100.00
2023-04-26T13:14:12.211Z,100.00
2023-04-26T13:16:44.062Z,100.00
2023-04-26T13:19:14.819Z,100.00
2023-04-26T13:21:43.809Z,100.00
2023-04-26T13:24:12.496Z,100.00
2023-04-26T13:26:41.040Z,100.00
2023-04-26T13:29:10.284Z,100.00
2023-04-26T13:31:41.035Z,100.00
2023-04-26T13:34:13.293Z,100.00
2023-04-26T13:36:43.422Z,100.00
2023-04-26T13:39:11.914Z,100.00
2023-04-26T13:41:40.481Z,100.00
2023-04-26T13:44:10.002Z,100.00
2023-04-26T13:46:39.152Z,100.00
2023-04-26T13:49:08.588Z,100.00
2023-04-26T13:51:38.182Z,100.00
2023-04-26T13:54:08.557Z,100.00
2023-04-26T13:56:37.291Z,100.00
2023-04-26T13:59:08.151Z,100.00
2023-04-26T14:01:37.883Z,100.00
2023-04-26T14:04:07.700Z,100.00
2023-04-26T14:06:36.603Z,100.00
2023-04-26T14:09:07.131Z,100.00
2023-04-26T14:11:37.578Z,100.00
2023-04-26T14:14:06.650Z,100.00
2023-04-26T14:16:35.566Z,99.37
2023-04-26T14:19:05.433Z,97.24
2023-04-26T14:21:33.788Z,95.49
2023-04-26T14:24:02.576Z,96.75
2023-04-26T14:26:31.731Z,84.48
2023-04-26T14:29:02.488Z,79.40
2023-04-26T14:31:33.041Z,79.93
2023-04-26T14:34:01.962Z,76.65
2023-04-26T14:36:30.560Z,74.52
2023-04-26T14:38:59.053Z,77.17
2023-04-26T14:41:30.014Z,70.61
2023-04-26T14:43:58.462Z,70.87
2023-04-26T14:46:29.130Z,74.55
2023-04-26T14:48:57.553Z,74.02
2023-04-26T14:51:26.464Z,76.65
2023-04-26T14:53:55.237Z,77.43
2023-04-26T14:56:24.276Z,76.39
2023-04-26T14:58:55.560Z,75.24
2023-04-26T15:01:23.980Z,74.64
2023-04-26T15:03:54.324Z,70.84
2023-04-26T15:06:24.102Z,67.40
2023-04-26T15:08:52.920Z,71.76
2023-04-26T15:11:21.552Z,74.07
2023-04-26T15:13:50.719Z,72.74
2023-04-26T15:16:20.072Z,74.49
2023-04-26T15:18:48.588Z,74.02
2023-04-26T15:21:22.607Z,72.72
2023-04-26T15:23:51.362Z,72.61
2023-04-26T15:26:20.048Z,71.03
2023-04-26T15:28:48.849Z,67.92
2023-04-26T15:31:18.615Z,72.37
2023-04-26T15:33:47.301Z,77.42
2023-04-26T15:36:16.557Z,78.21
2023-04-26T15:38:48.745Z,74.35
2023-04-26T15:41:17.254Z,69.38
2023-04-26T15:43:46.338Z,68.52
2023-04-26T15:46:16.166Z,66.97
2023-04-26T15:48:44.760Z,67.16
2023-04-26T15:51:13.398Z,66.38
2023-04-26T15:53:44.150Z,67.97
2023-04-26T15:56:18.549Z,64.85
2023-04-26T15:58:47.428Z,66.77
2023-04-26T16:01:16.337Z,69.19
2023-04-26T16:03:47.433Z,68.40
2023-04-26T16:06:16.638Z,64.09
2023-04-26T16:08:46.169Z,69.67
2023-04-26T16:11:14.663Z,73.96
2023-04-26T16:13:44.909Z,74.11
2023-04-26T16:16:14.025Z,71.14
2023-04-26T16:18:44.414Z,72.41
2023-04-26T16:21:13.768Z,73.12
2023-04-26T16:23:43.053Z,72.92
2023-04-26T16:26:12.339Z,72.16
2023-04-26T16:28:41.232Z,71.08
2023-04-26T16:31:12.271Z,71.11
2023-04-26T16:33:40.780Z,67.84
2023-04-26T16:36:11.508Z,66.40
2023-04-26T16:38:40.041Z,69.33
2023-04-26T16:41:09.586Z,69.21
2023-04-26T16:43:38.334Z,70.92
2023-04-26T16:46:14.536Z,70.17
2023-04-26T16:48:44.011Z,68.90
2023-04-26T16:51:13.180Z,68.40
2023-04-26T16:53:41.745Z,68.46
2023-04-26T16:56:13.839Z,67.15
2023-04-26T16:58:50.900Z,68.34
2023-04-26T17:01:22.932Z,67.31
2023-04-26T17:03:52.244Z,68.62
2023-04-26T17:06:21.223Z,67.45
2023-04-26T17:08:50.337Z,66.00
2023-04-26T17:11:19.940Z,69.73
2023-04-26T17:13:48.737Z,67.60
2023-04-26T17:16:17.196Z,65.84
2023-04-26T17:18:48.871Z,68.21
2023-04-26T17:21:18.709Z,66.04
2023-04-26T17:23:47.368Z,61.48
2023-04-26T17:26:18.254Z,60.10
2023-04-26T17:28:47.182Z,60.83
2023-04-26T17:31:15.586Z,62.81
2023-04-26T17:33:44.320Z,65.56
2023-04-26T17:36:15.561Z,64.85
2023-04-26T17:38:50.148Z,67.95
2023-04-26T17:41:18.770Z,68.00
2023-04-26T17:43:47.443Z,66.64
2023-04-26T17:46:16.002Z,72.72
2023-04-26T17:48:44.630Z,68.80
2023-04-26T17:51:14.634Z,67.58
2023-04-26T17:53:43.072Z,68.91
2023-04-26T17:56:18.771Z,71.26
2023-04-26T17:58:47.141Z,68.17
2023-04-26T18:01:16.184Z,67.09
2023-04-26T18:03:44.921Z,68.51
2023-04-26T18:06:15.240Z,70.16
2023-04-26T18:08:44.051Z,72.53
2023-04-26T18:11:16.218Z,77.13
2023-04-26T18:13:44.492Z,76.17
2023-04-26T18:16:15.197Z,74.96
2023-04-26T18:18:43.568Z,76.58
2023-04-26T18:21:14.473Z,76.14
2023-04-26T18:23:43.477Z,88.48
2023-04-26T18:26:12.168Z,91.06
2023-04-26T18:28:41.046Z,88.89
2023-04-26T18:31:12.334Z,90.45
2023-04-26T18:33:44.093Z,87.48
2023-04-26T18:36:12.665Z,94.19
2023-04-26T18:38:42.589Z,99.11
2023-04-26T18:41:13.557Z,96.74
2023-04-26T18:43:42.048Z,100.00
2023-04-26T18:46:10.316Z,100.00
2023-04-26T18:48:39.118Z,100.00
2023-04-26T18:51:07.726Z,100.00
2023-04-26T18:53:36.304Z,100.00
2023-04-26T18:56:06.801Z,100.00
2023-04-26T18:58:36.385Z,100.00
2023-04-26T19:01:05.187Z,100.00
2023-04-26T19:03:33.775Z,100.00
2023-04-26T19:06:02.574Z,100.00
2023-04-26T19:08:31.283Z,100.00
2023-04-26T19:10:59.709Z,100.00
2023-04-26T19:13:29.636Z,100.00
2023-04-26T19:15:58.148Z,100.00
2023-04-26T19:18:27.294Z,100.00
2023-04-26T19:20:56.101Z,100.00
2023-04-26T19:23:24.567Z,100.00
2023-04-26T19:25:52.904Z,100.00
2023-04-26T19:28:21.538Z,100.00
2023-04-26T19:30:51.574Z,100.00
2023-04-26T19:33:20.129Z,100.00
2023-04-26T19:35:48.455Z,100.00
2023-04-26T19:38:17.940Z,100.00
2023-04-26T19:40:46.843Z,100.00
2023-04-26T19:43:17.414Z,100.00
2023-04-26T19:45:45.791Z,100.00
2023-04-26T19:48:15.522Z,100.00
2023-04-26T19:50:45.258Z,100.00
2023-04-26T19:53:14.118Z,100.00
2023-04-26T19:55:44.256Z,100.00
2023-04-26T19:58:12.974Z,100.00
2023-04-26T20:00:41.707Z,100.00
2023-04-26T20:03:10.397Z,100.00
2023-04-26T20:05:40.634Z,100.00
2023-04-26T20:08:09.496Z,100.00
2023-04-26T20:10:37.947Z,100.00
2023-04-26T20:13:06.243Z,100.00
2023-04-26T20:15:34.867Z,100.00
2023-04-26T20:18:04.882Z,100.00
2023-04-26T20:20:33.837Z,100.00
2023-04-26T20:23:04.418Z,100.00
2023-04-26T20:25:36.964Z,100.00
2023-04-26T20:28:05.865Z,100.00
2023-04-26T20:30:35.828Z,100.00
2023-04-26T20:33:04.574Z,100.00
2023-04-26T20:35:33.423Z,100.00
2023-04-26T20:38:01.758Z,100.00
2023-04-26T20:40:32.063Z,100.00
2023-04-26T20:43:01.201Z,100.00
2023-04-26T20:45:29.753Z,100.00
2023-04-26T20:47:59.286Z,100.00
2023-04-26T20:50:28.859Z,100.00
2023-04-26T20:52:59.306Z,100.00
2023-04-26T20:55:27.822Z,100.00
2023-04-26T20:57:57.566Z,100.00
2023-04-26T21:00:30.842Z,100.00
2023-04-26T21:03:00.528Z,100.00
2023-04-26T21:05:29.267Z,100.00
2023-04-26T21:07:57.802Z,100.00
2023-04-26T21:10:28.618Z,100.00
2023-04-26T21:12:59.394Z,100.00
2023-04-26T21:15:27.949Z,100.00
2023-04-26T21:17:57.584Z,100.00
2023-04-26T21:20:25.995Z,100.00
2023-04-26T21:22:55.336Z,100.00
2023-04-26T21:25:36.386Z,100.00
2023-04-26T21:28:07.397Z,100.00
2023-04-26T21:30:36.855Z,100.00
2023-04-26T21:33:05.528Z,100.00
2023-04-26T21:35:34.481Z,100.00
2023-04-26T21:38:03.832Z,100.00
2023-04-26T21:40:32.244Z,100.00
2023-04-26T21:43:05.233Z,100.00
2023-04-26T21:45:35.988Z,100.00
2023-04-26T21:48:07.304Z,100.00
2023-04-26T21:50:37.059Z,100.00
2023-04-26T21:53:08.452Z,100.00
2023-04-26T21:55:38.196Z,100.00
2023-04-26T21:58:08.797Z,100.00
2023-04-26T22:00:39.081Z,100.00
2023-04-26T22:03:07.922Z,100.00
2023-04-26T22:05:38.104Z,100.00
2023-04-26T22:08:06.983Z,100.00
2023-04-26T22:10:36.968Z,100.00
2023-04-26T22:13:06.773Z,100.00
2023-04-26T22:15:38.814Z,100.00
2023-04-26T22:18:07.410Z,100.00
2023-04-26T22:20:36.730Z,100.00
2023-04-26T22:23:05.675Z,100.00
2023-04-26T22:25:34.316Z,100.00
2023-04-26T22:28:03.096Z,100.00
2023-04-26T22:30:31.941Z,100.00
2023-04-26T22:33:02.222Z,100.00
2023-04-26T22:35:32.086Z,100.00
2023-04-26T22:38:00.576Z,100.00
2023-04-26T22:40:30.419Z,100.00
2023-04-26T22:42:58.881Z,100.00
2023-04-26T22:45:28.451Z,100.00
2023-04-26T22:47:57.575Z,100.00
2023-04-26T22:50:27.749Z,100.00
2023-04-26T22:52:56.336Z,100.00
2023-04-26T22:55:25.045Z,100.00
2023-04-26T22:57:55.038Z,100.00
2023-04-26T23:00:25.717Z,100.00
2023-04-26T23:02:54.757Z,100.00
2023-04-26T23:05:24.209Z,100.00
2023-04-26T23:07:54.547Z,100.00
2023-04-26T23:10:25.946Z,100.00
2023-04-26T23:12:55.757Z,100.00
2023-04-26T23:15:25.858Z,100.00
2023-04-26T23:17:55.272Z,100.00
2023-04-26T23:20:24.153Z,100.00
2023-04-26T23:22:56.035Z,100.00
2023-04-26T23:25:24.417Z,100.00
2023-04-26T23:27:53.900Z,100.00
2023-04-26T23:30:22.640Z,100.00
2023-04-26T23:32:51.457Z,100.00
2023-04-26T23:35:21.179Z,100.00
2023-04-26T23:37:52.675Z,100.00
2023-04-26T23:40:22.669Z,100.00
2023-04-26T23:42:51.038Z,100.00
2023-04-26T23:45:19.833Z,100.00
2023-04-26T23:47:49.480Z,100.00
2023-04-26T23:50:18.117Z,100.00
2023-04-26T23:52:46.558Z,100.00
2023-04-26T23:55:17.203Z,100.00
2023-04-26T23:57:47.579Z,100.00
